KTYR/TYR METAR and TAF weather

Enter ICAO airport designator
Station Type Date Time Source
KTYR METAR 2019/02/20 17:30 UTC NOAA

KTYR 201730Z 30004KT 10SM FEW015 07/03 A3002 RMK AO2 T00720028


Station Type Date Time Source
KTYR Decoded METAR 2019/02/20 17:30 UTC NOAA

TYLER POUNDS FIELDS, TX, United States (KTYR) 32-21N 095-24W 165M
Feb 20, 2019 - 12:30 PM EST / 2019.02.20 1730 UTC
Wind: from the WNW (300 degrees) at 5 MPH (4 KT):0
Visibility: 10 mile(s):0
Sky conditions: mostly clear
Temperature: 45.0 F (7.2 C)
Dew Point: 37.0 F (2.8 C)
Relative Humidity: 73%
Pressure (altimeter): 30.02 in. Hg (1016 hPa)
ob: KTYR 201730Z 30004KT 10SM FEW015 07/03 A3002 RMK AO2 T00720028
cycle: 17

Station Type Date Time Source
KTYR TAF 2019/02/20 18:45 UTC NOAA

TAF KTYR 201742Z 2018/2118 30008KT P6SM FEW015 FEW250
FM201900 29007KT P6SM SCT250
FM210000 VRB03KT P6SM BKN250
FM211500 08010KT P6SM VCSH BKN035 BKN080 OVC150


Example: see airport list